createdAt,value
2023-04-08T00:03:13.742Z,3.80
2023-04-08T00:08:23.651Z,4.50
2023-04-08T00:13:31.749Z,3.63
2023-04-08T00:18:38.212Z,4.30
2023-04-08T00:23:43.599Z,4.23
2023-04-08T00:28:47.100Z,5.60
2023-04-08T00:33:53.576Z,4.43
2023-04-08T00:38:57.759Z,5.50
2023-04-08T00:44:01.716Z,4.90
2023-04-08T00:49:08.248Z,5.30
2023-04-08T00:54:12.025Z,4.07
2023-04-08T00:59:15.865Z,4.40
2023-04-08T01:04:30.892Z,4.97
2023-04-08T01:09:44.155Z,5.87
2023-04-08T01:14:50.489Z,5.80
2023-04-08T01:19:57.615Z,5.80
2023-04-08T01:25:08.104Z,6.03
2023-04-08T01:30:15.585Z,5.53
2023-04-08T01:35:25.546Z,5.43
2023-04-08T01:40:28.992Z,5.07
2023-04-08T01:45:33.884Z,4.00
2023-04-08T01:50:38.625Z,4.57
2023-04-08T01:55:43.879Z,5.00
2023-04-08T02:00:49.674Z,5.03
2023-04-08T02:05:52.973Z,4.93
2023-04-08T02:10:56.412Z,5.17
2023-04-08T02:16:08.290Z,4.70
2023-04-08T02:21:15.883Z,5.83
2023-04-08T02:26:20.255Z,5.60
2023-04-08T02:31:28.070Z,6.27
2023-04-08T02:36:34.662Z,6.20
2023-04-08T02:41:38.026Z,5.50
2023-04-08T02:46:42.914Z,5.70
2023-04-08T02:51:46.458Z,5.80
2023-04-08T02:56:49.983Z,6.60
2023-04-08T03:01:55.021Z,8.23
2023-04-08T03:06:58.600Z,7.27
2023-04-08T03:12:02.046Z,6.17
2023-04-08T03:17:06.899Z,9.70
2023-04-08T03:22:11.309Z,8.07
2023-04-08T03:27:14.598Z,9.50
2023-04-08T03:32:19.403Z,6.77
2023-04-08T03:37:23.161Z,8.70
2023-04-08T03:42:26.461Z,7.33
2023-04-08T03:47:31.888Z,8.67
2023-04-08T03:52:36.050Z,8.10
2023-04-08T03:57:39.301Z,10.40
2023-04-08T04:02:44.002Z,7.77
2023-04-08T04:07:47.561Z,8.57
2023-04-08T04:12:51.805Z,7.97
2023-04-08T04:17:56.676Z,7.27
2023-04-08T04:23:00.452Z,7.60
2023-04-08T04:28:04.354Z,8.10
2023-04-08T04:33:11.354Z,7.97
2023-04-08T04:38:15.001Z,8.37
2023-04-08T04:43:18.458Z,7.50
2023-04-08T04:48:24.386Z,6.57
2023-04-08T04:53:28.379Z,6.10
2023-04-08T04:58:32.703Z,7.13
2023-04-08T05:03:39.692Z,7.53
2023-04-08T05:08:42.954Z,7.10
2023-04-08T05:13:46.635Z,8.63
2023-04-08T05:18:51.736Z,6.73
2023-04-08T05:23:55.480Z,6.20
2023-04-08T05:28:59.066Z,4.90
2023-04-08T05:34:04.061Z,6.53
2023-04-08T05:39:07.326Z,4.90
2023-04-08T05:44:10.578Z,5.87
2023-04-08T05:49:15.820Z,6.10
2023-04-08T05:54:19.082Z,7.17
2023-04-08T05:59:22.551Z,6.20
2023-04-08T06:04:27.701Z,5.77
2023-04-08T06:09:31.019Z,7.77
2023-04-08T06:14:34.233Z,7.63
2023-04-08T06:19:38.958Z,6.97
2023-04-08T06:24:42.563Z,10.13
2023-04-08T06:29:50.975Z,6.70
2023-04-08T06:34:55.790Z,8.83
2023-04-08T06:40:00.404Z,10.07
2023-04-08T06:45:12.433Z,11.43
2023-04-08T06:50:20.107Z,14.00
2023-04-08T06:55:23.517Z,16.07
2023-04-08T07:00:29.768Z,14.53
2023-04-08T07:05:37.110Z,11.80
2023-04-08T07:10:40.420Z,15.47
2023-04-08T07:15:43.814Z,18.67
2023-04-08T07:20:53.281Z,19.03
2023-04-08T07:25:57.132Z,16.23
2023-04-08T07:31:11.025Z,16.57
2023-04-08T07:36:18.650Z,18.10
2023-04-08T07:41:22.313Z,19.23
2023-04-08T07:46:25.799Z,18.17
2023-04-08T07:51:30.554Z,17.77
2023-04-08T07:56:33.708Z,16.80
2023-04-08T08:01:37.125Z,18.00
2023-04-08T08:06:41.678Z,17.97
2023-04-08T08:11:52.859Z,19.30
2023-04-08T08:16:57.318Z,19.27
2023-04-08T08:22:02.254Z,18.70
2023-04-08T08:27:07.188Z,19.33
2023-04-08T08:32:16.677Z,20.50
2023-04-08T08:37:21.417Z,18.90
2023-04-08T08:42:25.916Z,19.27
2023-04-08T08:47:29.578Z,18.10
2023-04-08T08:52:34.897Z,21.37
2023-04-08T08:57:38.479Z,18.77
2023-04-08T09:02:42.278Z,20.03
2023-04-08T09:07:47.119Z,20.30
2023-04-08T09:12:57.694Z,19.33
2023-04-08T09:18:01.187Z,21.00
2023-04-08T09:23:06.146Z,19.83
2023-04-08T09:28:21.194Z,20.80
2023-04-08T09:33:31.953Z,19.83
2023-04-08T09:38:36.863Z,19.80
2023-04-08T09:43:49.270Z,25.00
2023-04-08T09:49:03.669Z,27.13
2023-04-08T09:54:15.817Z,26.00
2023-04-08T09:59:21.933Z,22.93
2023-04-08T10:04:31.006Z,32.13
2023-04-08T10:09:36.398Z,23.47
2023-04-08T10:14:40.872Z,22.23
2023-04-08T10:19:44.691Z,22.90
2023-04-08T10:25:22.046Z,22.73
2023-04-08T10:30:43.454Z,23.03
2023-04-08T10:35:51.418Z,24.00
2023-04-08T10:41:02.344Z,23.20
2023-04-08T10:46:07.456Z,24.17
2023-04-08T10:51:17.324Z,22.90
2023-04-08T10:56:22.073Z,21.73
2023-04-08T11:01:38.924Z,21.93
2023-04-08T11:06:44.713Z,21.03
2023-04-08T11:11:48.800Z,19.50
2023-04-08T11:16:53.988Z,21.43
2023-04-08T11:22:00.706Z,20.00
2023-04-08T11:27:04.854Z,18.87
2023-04-08T11:32:12.938Z,16.47
2023-04-08T11:37:16.719Z,15.03
2023-04-08T11:42:29.979Z,14.17
2023-04-08T11:47:35.439Z,16.13
2023-04-08T11:52:46.047Z,16.53
2023-04-08T11:57:54.835Z,16.40
2023-04-08T12:03:00.698Z,17.13
2023-04-08T12:08:07.057Z,17.67
2023-04-08T12:13:13.930Z,15.17
2023-04-08T12:18:21.098Z,14.53
2023-04-08T12:23:24.881Z,13.47
2023-04-08T12:28:31.949Z,13.53
2023-04-08T12:33:36.842Z,12.97
2023-04-08T12:38:40.090Z,12.93
2023-04-08T12:43:43.297Z,11.67
2023-04-08T12:48:59.950Z,12.77
2023-04-08T12:54:09.251Z,11.43
2023-04-08T12:59:13.347Z,13.37
2023-04-08T13:04:21.073Z,15.07
2023-04-08T13:09:24.333Z,16.67
2023-04-08T13:14:33.778Z,15.43
2023-04-08T13:19:38.484Z,14.70
2023-04-08T13:24:44.205Z,14.20
2023-04-08T13:29:47.563Z,13.30
2023-04-08T13:34:56.408Z,14.60
2023-04-08T13:40:01.885Z,12.57
2023-04-08T13:45:10.248Z,13.10
2023-04-08T13:50:15.834Z,13.60
2023-04-08T13:55:21.085Z,14.50
2023-04-08T14:00:27.266Z,16.00
2023-04-08T14:05:33.506Z,12.53
2023-04-08T14:10:37.154Z,12.27
2023-04-08T14:15:40.839Z,13.53
2023-04-08T14:20:45.848Z,11.27
2023-04-08T14:25:49.190Z,10.97
2023-04-08T14:30:54.027Z,10.80
2023-04-08T14:35:59.156Z,10.73
2023-04-08T14:41:02.750Z,10.53
2023-04-08T14:46:06.362Z,9.63
2023-04-08T14:51:11.551Z,11.17
2023-04-08T14:56:15.601Z,10.90
2023-04-08T15:01:18.917Z,10.77
2023-04-08T15:06:23.792Z,9.70
2023-04-08T15:11:27.032Z,9.90
2023-04-08T15:16:30.698Z,9.93
2023-04-08T15:21:35.640Z,9.83
2023-04-08T15:26:39.020Z,10.40
2023-04-08T15:31:42.782Z,10.17
2023-04-08T15:36:47.839Z,10.03
2023-04-08T15:41:53.280Z,10.70
2023-04-08T15:46:56.658Z,10.57
2023-04-08T15:52:08.578Z,9.80
2023-04-08T15:57:16.336Z,10.03
2023-04-08T16:02:20.127Z,9.57
2023-04-08T16:07:24.834Z,10.57
2023-04-08T16:12:29.006Z,9.87
2023-04-08T16:17:32.488Z,10.67
2023-04-08T16:22:37.460Z,10.77
2023-04-08T16:27:40.843Z,11.40
2023-04-08T16:32:44.118Z,11.70
2023-04-08T16:37:48.851Z,11.60
2023-04-08T16:42:52.505Z,11.13
2023-04-08T16:47:55.982Z,11.37
2023-04-08T16:53:00.824Z,11.17
2023-04-08T16:58:05.049Z,10.77
2023-04-08T17:03:08.450Z,10.43
2023-04-08T17:08:13.424Z,10.23
2023-04-08T17:13:16.808Z,11.10
2023-04-08T17:18:20.167Z,10.87
2023-04-08T17:23:25.458Z,12.53
2023-04-08T17:28:29.290Z,12.13
2023-04-08T17:33:42.378Z,15.00
2023-04-08T17:38:49.547Z,14.80
2023-04-08T17:43:53.758Z,11.93
2023-04-08T17:48:57.934Z,12.07
2023-04-08T17:54:02.724Z,13.93
2023-04-08T17:59:05.998Z,13.23
2023-04-08T18:04:11.078Z,15.13
2023-04-08T18:09:17.128Z,13.60
2023-04-08T18:14:26.388Z,12.37
2023-04-08T18:19:36.901Z,15.13
2023-04-08T18:24:42.861Z,13.17
2023-04-08T18:29:47.803Z,13.60
2023-04-08T18:34:52.550Z,12.60
2023-04-08T18:40:02.519Z,13.53
2023-04-08T18:45:06.753Z,12.73
2023-04-08T18:50:11.722Z,16.23
2023-04-08T18:55:17.112Z,18.87
2023-04-08T19:00:20.317Z,17.37
2023-04-08T19:05:23.992Z,13.27
2023-04-08T19:10:31.073Z,14.23
2023-04-08T19:15:37.114Z,14.63
2023-04-08T19:20:40.591Z,15.23
2023-04-08T19:25:46.415Z,14.30
2023-04-08T19:30:51.029Z,12.83
2023-04-08T19:35:57.626Z,13.03
2023-04-08T19:41:06.836Z,16.60
2023-04-08T19:46:14.614Z,14.37
2023-04-08T19:51:38.928Z,14.23
2023-04-08T19:56:44.191Z,14.37
2023-04-08T20:01:48.772Z,12.73
2023-04-08T20:06:52.224Z,12.57
2023-04-08T20:12:03.554Z,13.00
2023-04-08T20:17:06.869Z,13.97
2023-04-08T20:22:10.865Z,14.27
2023-04-08T20:27:16.802Z,16.30
2023-04-08T20:32:20.216Z,13.97
2023-04-08T20:37:23.559Z,15.10
2023-04-08T20:42:29.090Z,16.63
2023-04-08T20:47:33.561Z,16.77
2023-04-08T20:52:36.959Z,16.47
2023-04-08T20:57:41.913Z,18.47
2023-04-08T21:02:45.454Z,16.20
2023-04-08T21:07:48.792Z,15.93
2023-04-08T21:12:54.076Z,14.23
2023-04-08T21:17:57.646Z,17.20
2023-04-08T21:23:00.976Z,17.70
2023-04-08T21:28:05.643Z,19.27
2023-04-08T21:33:09.606Z,25.47
2023-04-08T21:38:13.054Z,25.00
2023-04-08T21:43:17.636Z,24.80
2023-04-08T21:48:21.432Z,23.47
2023-04-08T21:53:24.664Z,24.23
2023-04-08T21:58:29.359Z,25.40
2023-04-08T22:03:32.660Z,27.20
2023-04-08T22:08:36.011Z,25.33
2023-04-08T22:13:40.578Z,24.87
2023-04-08T22:18:44.080Z,25.07
2023-04-08T22:23:47.428Z,26.93
2023-04-08T22:28:52.233Z,25.37
2023-04-08T22:33:55.610Z,25.20
2023-04-08T22:38:58.846Z,25.37
2023-04-08T22:44:03.675Z,29.00
2023-04-08T22:49:09.950Z,27.73
2023-04-08T22:54:13.552Z,26.47
2023-04-08T22:59:18.283Z,25.47
2023-04-08T23:04:21.720Z,26.03
2023-04-08T23:09:26.745Z,30.03
2023-04-08T23:14:31.404Z,26.93
2023-04-08T23:19:34.828Z,29.03
2023-04-08T23:24:38.120Z,28.77
2023-04-08T23:29:42.847Z,28.20
2023-04-08T23:34:46.042Z,27.77
2023-04-08T23:39:49.166Z,27.80
2023-04-08T23:44:54.209Z,30.47
2023-04-08T23:49:57.882Z,29.07
2023-04-08T23:55:01.282Z,30.83
